createdAt,value
2023-01-15T00:01:21.279Z,58.19
2023-01-15T00:03:50.131Z,58.44
2023-01-15T00:06:19.010Z,58.22
2023-01-15T00:08:47.253Z,58.28
2023-01-15T00:11:16.380Z,58.00
2023-01-15T00:13:44.666Z,58.30
2023-01-15T00:16:16.089Z,58.47
2023-01-15T00:18:44.972Z,58.35
2023-01-15T00:21:14.113Z,58.30
2023-01-15T00:23:59.979Z,58.47
2023-01-15T00:26:48.211Z,58.58
2023-01-15T00:29:17.219Z,58.98
2023-01-15T00:31:56.538Z,58.78
2023-01-15T00:34:25.373Z,58.87
2023-01-15T00:36:54.079Z,59.06
2023-01-15T00:39:24.190Z,59.49
2023-01-15T00:41:55.846Z,59.02
2023-01-15T00:44:24.376Z,59.06
2023-01-15T00:46:53.962Z,59.22
2023-01-15T00:49:22.254Z,59.45
2023-01-15T00:51:51.161Z,59.08
2023-01-15T00:54:19.406Z,59.26
2023-01-15T00:56:47.757Z,59.33
2023-01-15T00:59:16.040Z,59.29
2023-01-15T01:01:44.469Z,59.10
2023-01-15T01:04:14.051Z,59.19
2023-01-15T01:06:42.728Z,59.19
2023-01-15T01:09:13.772Z,59.18
2023-01-15T01:11:41.987Z,59.25
2023-01-15T01:14:12.829Z,59.15
2023-01-15T01:16:44.598Z,59.14
2023-01-15T01:19:17.346Z,59.06
2023-01-15T01:21:47.812Z,59.35
2023-01-15T01:24:18.191Z,59.11
2023-01-15T01:26:47.578Z,59.07
2023-01-15T01:29:17.584Z,59.17
2023-01-15T01:31:46.428Z,59.22
2023-01-15T01:34:16.050Z,59.19
2023-01-15T01:36:45.566Z,59.18
2023-01-15T01:39:19.915Z,58.90
2023-01-15T01:41:49.587Z,58.82
2023-01-15T01:44:55.316Z,58.69
2023-01-15T01:47:27.187Z,59.04
2023-01-15T01:50:04.292Z,59.33
2023-01-15T01:52:38.302Z,59.53
2023-01-15T01:55:07.697Z,59.42
2023-01-15T01:57:36.401Z,59.68
2023-01-15T02:00:06.885Z,59.69
2023-01-15T02:02:43.380Z,59.46
2023-01-15T02:05:17.961Z,59.40
2023-01-15T02:07:47.007Z,59.54
2023-01-15T02:10:17.005Z,59.62
2023-01-15T02:12:50.740Z,59.74
2023-01-15T02:15:23.404Z,60.00
2023-01-15T02:17:57.118Z,60.04
2023-01-15T02:20:33.496Z,59.97
2023-01-15T02:23:43.921Z,59.87
2023-01-15T02:26:33.304Z,59.89
2023-01-15T02:29:05.141Z,60.17
2023-01-15T02:31:38.505Z,59.86
2023-01-15T02:34:11.630Z,59.95
2023-01-15T02:36:43.059Z,60.09
2023-01-15T02:39:16.117Z,60.02
2023-01-15T02:41:48.240Z,60.02
2023-01-15T02:44:20.899Z,59.99
2023-01-15T02:46:50.201Z,59.98
2023-01-15T02:49:21.493Z,59.96
2023-01-15T02:51:57.031Z,60.11
2023-01-15T02:54:29.618Z,60.40
2023-01-15T02:57:01.207Z,60.26
2023-01-15T02:59:37.335Z,60.18
2023-01-15T03:02:12.178Z,60.69
2023-01-15T03:04:44.831Z,60.40
2023-01-15T03:07:18.664Z,60.34
2023-01-15T03:09:47.910Z,60.55
2023-01-15T03:12:20.949Z,60.29
2023-01-15T03:14:58.764Z,60.37
2023-01-15T03:17:35.106Z,60.62
2023-01-15T03:20:10.327Z,60.55
2023-01-15T03:22:43.099Z,60.77
2023-01-15T03:25:17.951Z,60.80
2023-01-15T03:27:46.860Z,60.38
2023-01-15T03:30:18.668Z,60.73
2023-01-15T03:32:48.029Z,60.50
2023-01-15T03:35:43.440Z,60.62
2023-01-15T03:38:13.263Z,61.54
2023-01-15T03:40:51.570Z,61.30
2023-01-15T03:43:44.505Z,62.04
2023-01-15T03:46:34.942Z,62.10
2023-01-15T03:49:12.264Z,65.06
2023-01-15T03:51:49.933Z,64.11
2023-01-15T03:54:25.825Z,64.23
2023-01-15T03:56:59.395Z,63.93
2023-01-15T03:59:33.484Z,63.27
2023-01-15T04:02:05.016Z,64.02
2023-01-15T04:04:34.952Z,63.07
2023-01-15T04:07:03.923Z,63.28
2023-01-15T04:09:39.261Z,65.21
2023-01-15T04:12:08.245Z,64.46
2023-01-15T04:14:38.726Z,66.37
2023-01-15T04:17:08.605Z,67.20
2023-01-15T04:19:36.830Z,66.54
2023-01-15T04:22:05.304Z,67.07
2023-01-15T04:24:33.392Z,66.79
2023-01-15T04:27:01.611Z,66.86
2023-01-15T04:29:29.611Z,66.91
2023-01-15T04:31:58.256Z,66.70
2023-01-15T04:34:28.927Z,66.21
2023-01-15T04:36:57.447Z,66.33
2023-01-15T04:39:25.683Z,65.41
2023-01-15T04:42:11.472Z,64.95
2023-01-15T04:44:40.374Z,65.07
2023-01-15T04:47:08.569Z,64.62
2023-01-15T04:49:38.085Z,64.36
2023-01-15T04:52:06.307Z,64.34
2023-01-15T04:54:34.524Z,64.41
2023-01-15T04:57:02.506Z,64.36
2023-01-15T04:59:30.461Z,64.17
2023-01-15T05:02:04.613Z,64.61
2023-01-15T05:04:35.142Z,64.16
2023-01-15T05:07:06.128Z,64.05
2023-01-15T05:09:34.408Z,63.94
2023-01-15T05:12:02.594Z,64.17
2023-01-15T05:14:31.115Z,64.36
2023-01-15T05:16:59.495Z,64.80
2023-01-15T05:19:27.489Z,64.80
2023-01-15T05:21:55.670Z,64.18
2023-01-15T05:24:25.365Z,64.17
2023-01-15T05:26:53.763Z,63.85
2023-01-15T05:29:22.291Z,64.25
2023-01-15T05:31:50.339Z,64.75
2023-01-15T05:34:18.377Z,65.03
2023-01-15T05:36:46.731Z,64.99
2023-01-15T05:39:14.718Z,64.26
2023-01-15T05:41:54.021Z,64.10
2023-01-15T05:44:25.241Z,64.37
2023-01-15T05:46:55.566Z,64.52
2023-01-15T05:49:25.604Z,64.08
2023-01-15T05:51:54.872Z,64.00
2023-01-15T05:54:25.145Z,64.01
2023-01-15T05:56:55.026Z,64.07
2023-01-15T05:59:25.482Z,63.47
2023-01-15T06:01:54.687Z,63.80
2023-01-15T06:04:25.140Z,63.28
2023-01-15T06:06:54.514Z,62.93
2023-01-15T06:09:23.152Z,62.66
2023-01-15T06:11:51.599Z,62.45
2023-01-15T06:14:21.191Z,62.56
2023-01-15T06:16:49.359Z,63.03
2023-01-15T06:19:17.441Z,63.46
2023-01-15T06:21:45.486Z,62.66
2023-01-15T06:24:16.499Z,62.36
2023-01-15T06:26:44.573Z,61.96
2023-01-15T06:29:13.438Z,61.89
2023-01-15T06:31:43.464Z,61.99
2023-01-15T06:34:11.428Z,62.06
2023-01-15T06:36:39.406Z,61.66
2023-01-15T06:39:07.815Z,61.67
2023-01-15T06:41:53.509Z,61.61
2023-01-15T06:44:39.788Z,61.54
2023-01-15T06:47:24.949Z,61.39
2023-01-15T06:49:55.579Z,61.38
2023-01-15T06:52:24.412Z,61.13
2023-01-15T06:54:53.270Z,60.90
2023-01-15T06:57:21.719Z,60.70
2023-01-15T06:59:50.475Z,60.80
2023-01-15T07:02:19.984Z,60.48
2023-01-15T07:04:49.171Z,60.47
2023-01-15T07:07:17.712Z,60.65
2023-01-15T07:09:45.741Z,60.61
2023-01-15T07:12:14.108Z,60.49
2023-01-15T07:14:42.387Z,60.32
2023-01-15T07:17:10.463Z,60.08
2023-01-15T07:19:40.226Z,59.77
2023-01-15T07:22:10.077Z,59.60
2023-01-15T07:24:38.242Z,59.47
2023-01-15T07:27:06.944Z,59.64
2023-01-15T07:29:34.866Z,59.22
2023-01-15T07:32:03.268Z,59.24
2023-01-15T07:34:31.452Z,58.88
2023-01-15T07:37:00.664Z,58.76
2023-01-15T07:39:31.576Z,58.88
2023-01-15T07:42:17.236Z,58.77
2023-01-15T07:45:03.918Z,58.96
2023-01-15T07:47:49.837Z,58.74
2023-01-15T07:50:21.972Z,58.88
2023-01-15T07:52:53.375Z,58.81
2023-01-15T07:55:22.537Z,58.88
2023-01-15T07:57:50.554Z,59.03
2023-01-15T08:00:22.785Z,59.11
2023-01-15T08:02:51.193Z,59.38
2023-01-15T08:05:19.905Z,59.08
2023-01-15T08:07:49.113Z,58.88
2023-01-15T08:10:19.681Z,58.85
2023-01-15T08:13:08.224Z,58.67
2023-01-15T08:15:40.633Z,58.58
2023-01-15T08:18:08.586Z,58.38
2023-01-15T08:20:37.252Z,58.39
2023-01-15T08:23:05.154Z,58.25
2023-01-15T08:25:34.560Z,58.40
2023-01-15T08:28:03.535Z,58.03
2023-01-15T08:30:31.868Z,57.77
2023-01-15T08:33:03.616Z,58.17
2023-01-15T08:35:32.260Z,58.00
2023-01-15T08:38:00.284Z,57.90
2023-01-15T08:40:28.315Z,58.01
2023-01-15T08:42:57.833Z,58.02
2023-01-15T08:45:25.927Z,57.95
2023-01-15T08:47:55.891Z,58.03
2023-01-15T08:50:24.267Z,58.13
2023-01-15T08:52:52.379Z,57.97
2023-01-15T08:55:20.560Z,57.88
2023-01-15T08:57:49.595Z,57.81
2023-01-15T09:00:20.213Z,57.73
2023-01-15T09:02:50.149Z,57.77
2023-01-15T09:05:18.944Z,57.96
2023-01-15T09:07:47.138Z,58.02
2023-01-15T09:10:15.717Z,57.85
2023-01-15T09:12:43.769Z,57.76
2023-01-15T09:15:12.483Z,57.68
2023-01-15T09:17:42.144Z,57.65
2023-01-15T09:20:13.531Z,57.71
2023-01-15T09:22:41.965Z,57.43
2023-01-15T09:25:10.878Z,57.69
2023-01-15T09:27:39.431Z,57.54
2023-01-15T09:30:09.713Z,57.25
2023-01-15T09:32:38.099Z,57.79
2023-01-15T09:35:09.256Z,57.36
2023-01-15T09:37:37.877Z,57.01
2023-01-15T09:40:09.219Z,57.33
2023-01-15T09:42:46.666Z,57.31
2023-01-15T09:45:23.388Z,57.03
2023-01-15T09:48:13.072Z,56.98
2023-01-15T09:50:56.905Z,57.10
2023-01-15T09:53:37.805Z,56.66
2023-01-15T09:56:06.499Z,56.63
2023-01-15T09:58:37.529Z,56.94
2023-01-15T10:01:06.484Z,56.68
2023-01-15T10:03:43.545Z,56.77
2023-01-15T10:06:21.068Z,56.24
2023-01-15T10:08:50.852Z,56.51
2023-01-15T10:11:49.365Z,56.55
2023-01-15T10:14:32.748Z,56.22
2023-01-15T10:17:01.593Z,55.92
2023-01-15T10:19:43.947Z,56.53
2023-01-15T10:22:26.384Z,56.24
2023-01-15T10:24:58.222Z,55.52
2023-01-15T10:27:33.330Z,55.69
2023-01-15T10:30:07.857Z,55.94
2023-01-15T10:33:01.143Z,55.67
2023-01-15T10:35:43.726Z,55.18
2023-01-15T10:38:22.257Z,55.17
2023-01-15T10:41:16.851Z,55.33
2023-01-15T10:43:52.082Z,54.81
2023-01-15T10:46:25.433Z,54.57
2023-01-15T10:48:57.264Z,54.78
2023-01-15T10:51:30.743Z,55.24
2023-01-15T10:54:03.811Z,54.69
2023-01-15T10:56:36.540Z,54.32
2023-01-15T10:59:13.829Z,54.10
2023-01-15T11:01:42.565Z,53.50
2023-01-15T11:04:13.523Z,54.87
2023-01-15T11:06:42.751Z,54.33
2023-01-15T11:09:22.251Z,52.83
2023-01-15T11:12:12.741Z,53.83
2023-01-15T11:15:01.004Z,53.42
2023-01-15T11:17:50.664Z,55.15
2023-01-15T11:20:29.002Z,54.15
2023-01-15T11:22:58.291Z,53.41
2023-01-15T11:25:29.757Z,54.13
2023-01-15T11:28:01.261Z,53.82
2023-01-15T11:30:32.142Z,53.39
2023-01-15T11:33:04.199Z,53.44
2023-01-15T11:35:33.137Z,54.16
2023-01-15T11:38:06.346Z,54.38
2023-01-15T11:40:35.978Z,54.08
2023-01-15T11:43:21.880Z,54.43
2023-01-15T11:46:09.622Z,54.06
2023-01-15T11:49:04.135Z,53.85
2023-01-15T11:51:35.646Z,53.69
2023-01-15T11:54:08.526Z,53.55
2023-01-15T11:56:43.173Z,53.31
2023-01-15T11:59:14.629Z,53.32
2023-01-15T12:01:54.704Z,52.93
2023-01-15T12:04:35.858Z,52.22
2023-01-15T12:07:06.251Z,52.42
2023-01-15T12:09:54.807Z,52.87
2023-01-15T12:12:31.595Z,53.06
2023-01-15T12:15:24.308Z,53.02
2023-01-15T12:18:17.872Z,52.29
2023-01-15T12:21:02.635Z,52.28
2023-01-15T12:23:46.321Z,52.97
2023-01-15T12:26:24.791Z,52.56
2023-01-15T12:29:03.841Z,52.42
2023-01-15T12:31:37.842Z,52.54
2023-01-15T12:34:16.525Z,52.59
2023-01-15T12:36:49.451Z,52.57
2023-01-15T12:39:23.027Z,52.59
2023-01-15T12:42:13.420Z,52.86
2023-01-15T12:45:05.166Z,53.16
2023-01-15T12:47:40.994Z,52.97
2023-01-15T12:50:26.659Z,53.26
2023-01-15T12:53:00.867Z,52.59
2023-01-15T12:55:31.416Z,52.91
2023-01-15T12:58:02.978Z,53.01
2023-01-15T13:00:38.400Z,54.04
2023-01-15T13:03:18.978Z,53.24
2023-01-15T13:05:50.783Z,52.65
2023-01-15T13:08:25.005Z,53.06
2023-01-15T13:10:53.238Z,53.30
2023-01-15T13:13:24.697Z,53.19
2023-01-15T13:16:09.059Z,52.85
2023-01-15T13:18:48.020Z,52.89
2023-01-15T13:21:20.293Z,53.28
2023-01-15T13:24:16.225Z,53.43
2023-01-15T13:27:10.915Z,52.82
2023-01-15T13:29:59.967Z,53.10
2023-01-15T13:32:32.860Z,52.78
2023-01-15T13:35:09.021Z,53.11
2023-01-15T13:37:43.513Z,53.57
2023-01-15T13:40:19.336Z,53.38
2023-01-15T13:42:49.139Z,52.99
2023-01-15T13:45:37.429Z,53.01
2023-01-15T13:48:13.341Z,52.66
2023-01-15T13:50:44.193Z,53.38
2023-01-15T13:53:23.597Z,52.98
2023-01-15T13:55:54.874Z,53.45
2023-01-15T13:58:26.937Z,53.46
2023-01-15T14:01:08.944Z,53.91
2023-01-15T14:03:39.395Z,53.38
2023-01-15T14:06:09.677Z,53.44
2023-01-15T14:08:40.880Z,53.13
2023-01-15T14:11:37.851Z,53.73
2023-01-15T14:14:38.479Z,52.99
2023-01-15T14:17:25.505Z,52.48
2023-01-15T14:20:18.378Z,52.57
2023-01-15T14:23:02.464Z,51.99
2023-01-15T14:26:01.740Z,52.12
2023-01-15T14:28:44.658Z,52.21
2023-01-15T14:31:29.772Z,52.29
2023-01-15T14:34:19.956Z,51.79
2023-01-15T14:36:56.350Z,51.05
2023-01-15T14:39:32.017Z,51.61
2023-01-15T14:42:23.181Z,51.20
2023-01-15T14:44:59.689Z,52.04
2023-01-15T14:47:34.609Z,51.41
2023-01-15T14:50:20.406Z,51.72
2023-01-15T14:52:53.303Z,51.55
2023-01-15T14:55:22.527Z,52.24
2023-01-15T14:57:58.163Z,52.44
2023-01-15T15:00:32.683Z,51.88
2023-01-15T15:03:02.968Z,51.74
2023-01-15T15:05:35.077Z,52.08
2023-01-15T15:08:06.048Z,52.40
2023-01-15T15:10:39.680Z,52.26
2023-01-15T15:13:14.876Z,52.12
2023-01-15T15:15:51.787Z,52.06
2023-01-15T15:18:29.921Z,51.95
2023-01-15T15:21:06.420Z,51.35
2023-01-15T15:23:43.339Z,51.36
2023-01-15T15:26:25.503Z,51.67
2023-01-15T15:28:59.304Z,51.69
2023-01-15T15:31:29.459Z,51.52
2023-01-15T15:33:59.550Z,51.90
2023-01-15T15:36:30.943Z,52.06
2023-01-15T15:39:03.604Z,51.70
2023-01-15T15:41:53.827Z,51.07
2023-01-15T15:44:49.243Z,51.61
2023-01-15T15:47:39.119Z,51.07
2023-01-15T15:50:08.034Z,50.96
2023-01-15T15:52:36.561Z,51.44
2023-01-15T15:55:06.837Z,51.29
2023-01-15T15:57:36.463Z,51.70
2023-01-15T16:00:06.409Z,51.86
2023-01-15T16:02:41.407Z,51.82
2023-01-15T16:05:22.625Z,51.66
2023-01-15T16:07:51.614Z,51.94
2023-01-15T16:10:25.975Z,52.22
2023-01-15T16:12:57.348Z,51.85
2023-01-15T16:15:28.609Z,52.14
2023-01-15T16:17:58.328Z,52.24
2023-01-15T16:20:27.575Z,52.16
2023-01-15T16:22:57.984Z,52.08
2023-01-15T16:25:30.712Z,52.60
2023-01-15T16:27:59.625Z,52.26
2023-01-15T16:30:28.951Z,52.24
2023-01-15T16:33:02.281Z,52.62
2023-01-15T16:35:32.405Z,52.41
2023-01-15T16:38:02.510Z,52.50
2023-01-15T16:40:33.935Z,52.34
2023-01-15T16:43:07.647Z,52.64
2023-01-15T16:45:38.494Z,52.56
2023-01-15T16:48:29.827Z,52.69
2023-01-15T16:50:58.953Z,52.33
2023-01-15T16:53:33.343Z,52.83
2023-01-15T16:56:03.550Z,52.45
2023-01-15T16:58:38.171Z,52.47
2023-01-15T17:01:33.204Z,52.10
2023-01-15T17:04:02.139Z,52.27
2023-01-15T17:06:30.649Z,52.68
2023-01-15T17:08:59.149Z,52.51
2023-01-15T17:11:30.904Z,52.16
2023-01-15T17:14:11.151Z,52.46
2023-01-15T17:16:39.136Z,52.24
2023-01-15T17:19:08.781Z,52.28
2023-01-15T17:21:38.885Z,52.52
2023-01-15T17:24:08.051Z,52.31
2023-01-15T17:26:38.245Z,52.37
2023-01-15T17:29:06.211Z,52.41
2023-01-15T17:31:36.338Z,52.15
2023-01-15T17:34:04.958Z,52.10
2023-01-15T17:36:34.504Z,52.15
2023-01-15T17:39:02.637Z,52.33
2023-01-15T17:41:31.004Z,52.03
2023-01-15T17:44:00.364Z,52.09
2023-01-15T17:46:28.833Z,52.35
2023-01-15T17:48:57.127Z,52.06
2023-01-15T17:51:26.322Z,52.23
2023-01-15T17:53:54.422Z,52.18
2023-01-15T17:56:40.297Z,52.54
2023-01-15T17:59:29.159Z,52.25
2023-01-15T18:02:15.136Z,52.64
2023-01-15T18:05:04.698Z,52.37
2023-01-15T18:07:35.999Z,52.28
2023-01-15T18:10:06.247Z,52.41
2023-01-15T18:12:34.231Z,52.69
2023-01-15T18:15:03.638Z,52.52
2023-01-15T18:17:32.119Z,52.50
2023-01-15T18:20:00.126Z,52.63
2023-01-15T18:22:29.805Z,52.64
2023-01-15T18:24:58.116Z,52.48
2023-01-15T18:27:30.031Z,52.54
2023-01-15T18:29:59.267Z,52.57
2023-01-15T18:32:30.579Z,52.69
2023-01-15T18:34:59.103Z,52.79
2023-01-15T18:37:27.110Z,52.67
2023-01-15T18:39:55.281Z,52.88
2023-01-15T18:42:41.137Z,52.80
2023-01-15T18:45:28.003Z,52.73
2023-01-15T18:47:57.567Z,52.89
2023-01-15T18:50:26.519Z,53.15
2023-01-15T18:52:55.403Z,52.77
2023-01-15T18:55:25.551Z,52.83
2023-01-15T18:57:53.759Z,52.85
2023-01-15T19:00:23.568Z,52.50
2023-01-15T19:02:52.882Z,52.68
2023-01-15T19:05:22.609Z,53.29
2023-01-15T19:07:51.173Z,52.89
2023-01-15T19:10:19.856Z,53.07
2023-01-15T19:12:47.940Z,52.88
2023-01-15T19:15:34.986Z,52.91
2023-01-15T19:18:21.248Z,53.15
2023-01-15T19:20:50.795Z,52.90
2023-01-15T19:23:21.166Z,53.19
2023-01-15T19:25:49.769Z,53.08
2023-01-15T19:28:19.987Z,53.29
2023-01-15T19:31:10.842Z,52.89
2023-01-15T19:33:39.077Z,53.29
2023-01-15T19:36:09.448Z,53.29
2023-01-15T19:38:39.064Z,53.34
2023-01-15T19:41:29.638Z,53.47
2023-01-15T19:44:15.329Z,53.63
2023-01-15T19:47:01.771Z,53.24
2023-01-15T19:49:51.807Z,53.46
2023-01-15T19:52:37.774Z,53.42
2023-01-15T19:55:10.594Z,53.40
2023-01-15T19:57:39.124Z,53.42
2023-01-15T20:00:10.090Z,53.14
2023-01-15T20:02:38.706Z,53.25
2023-01-15T20:05:08.279Z,53.21
2023-01-15T20:07:38.002Z,53.28
2023-01-15T20:10:09.135Z,53.41
2023-01-15T20:12:55.421Z,53.50
2023-01-15T20:15:24.600Z,53.50
2023-01-15T20:17:52.911Z,53.41
2023-01-15T20:20:21.405Z,53.23
2023-01-15T20:22:51.178Z,53.15
2023-01-15T20:25:19.384Z,53.16
2023-01-15T20:27:47.441Z,53.47
2023-01-15T20:30:18.677Z,53.51
2023-01-15T20:32:47.489Z,53.56
2023-01-15T20:35:18.849Z,53.62
2023-01-15T20:37:48.075Z,53.71
2023-01-15T20:40:19.406Z,53.56
2023-01-15T20:43:05.085Z,53.52
2023-01-15T20:45:33.720Z,53.55
2023-01-15T20:48:20.502Z,53.55
2023-01-15T20:51:00.766Z,53.51
2023-01-15T20:53:30.422Z,53.64
2023-01-15T20:56:00.392Z,53.47
2023-01-15T20:58:28.471Z,53.64
2023-01-15T21:01:03.452Z,53.76
2023-01-15T21:03:31.877Z,53.88
2023-01-15T21:06:00.319Z,53.79
2023-01-15T21:08:29.474Z,53.83
2023-01-15T21:10:57.661Z,53.84
2023-01-15T21:13:27.141Z,53.94
2023-01-15T21:15:57.980Z,53.89
2023-01-15T21:18:27.700Z,53.84
2023-01-15T21:20:56.381Z,53.94
2023-01-15T21:23:25.481Z,53.73
2023-01-15T21:26:01.074Z,53.86
2023-01-15T21:28:31.193Z,54.07
2023-01-15T21:31:00.181Z,53.87
2023-01-15T21:33:28.362Z,53.81
2023-01-15T21:35:56.393Z,53.71
2023-01-15T21:38:24.752Z,53.74
2023-01-15T21:40:52.764Z,53.84
2023-01-15T21:43:38.324Z,53.93
2023-01-15T21:46:07.919Z,53.93
2023-01-15T21:48:36.323Z,53.99
2023-01-15T21:51:06.243Z,53.93
2023-01-15T21:53:34.644Z,53.91
2023-01-15T21:56:02.825Z,54.07
2023-01-15T21:58:30.921Z,54.04
2023-01-15T22:00:59.632Z,53.96
2023-01-15T22:03:29.211Z,54.16
2023-01-15T22:05:57.135Z,54.20
2023-01-15T22:08:25.108Z,54.48
2023-01-15T22:10:53.358Z,54.38
2023-01-15T22:13:21.347Z,54.26
2023-01-15T22:15:54.558Z,54.08
2023-01-15T22:18:25.570Z,54.14
2023-01-15T22:20:59.361Z,54.06
2023-01-15T22:23:28.229Z,54.07
2023-01-15T22:25:56.435Z,54.32
2023-01-15T22:28:25.042Z,54.44
2023-01-15T22:30:53.452Z,54.28
2023-01-15T22:33:21.677Z,54.24
2023-01-15T22:35:58.672Z,54.40
2023-01-15T22:38:27.237Z,54.60
2023-01-15T22:40:55.466Z,54.49
2023-01-15T22:43:22.423Z,54.37
2023-01-15T22:45:50.746Z,54.64
2023-01-15T22:48:18.927Z,54.65
2023-01-15T22:50:46.957Z,54.62
2023-01-15T22:53:16.504Z,54.89
2023-01-15T22:55:44.564Z,55.31
2023-01-15T22:58:12.604Z,55.03
2023-01-15T23:00:40.977Z,55.27
2023-01-15T23:03:10.185Z,54.89
2023-01-15T23:05:39.329Z,55.01
2023-01-15T23:08:08.055Z,54.99
2023-01-15T23:10:37.450Z,55.22
2023-01-15T23:13:05.332Z,55.09
2023-01-15T23:15:33.710Z,54.94
2023-01-15T23:18:01.727Z,55.07
2023-01-15T23:20:29.757Z,55.01
2023-01-15T23:22:58.117Z,55.22
2023-01-15T23:25:26.104Z,55.25
2023-01-15T23:27:55.496Z,55.15
2023-01-15T23:30:24.113Z,55.06
2023-01-15T23:32:52.545Z,55.14
2023-01-15T23:35:21.199Z,54.82
2023-01-15T23:37:49.608Z,54.68
2023-01-15T23:40:17.972Z,54.95
2023-01-15T23:43:03.596Z,54.77
2023-01-15T23:45:53.748Z,54.82
2023-01-15T23:48:21.718Z,54.86
2023-01-15T23:50:49.989Z,54.95
2023-01-15T23:53:17.949Z,54.94
2023-01-15T23:55:45.929Z,55.06
2023-01-15T23:58:14.202Z,55.05
